Terminal Aerodrome Forecast
Issued by NWS Melbourne, FL

Home | Current Version | Previous Version | Text Only | Print | Product List | Glossary On
Versions: 1 2 3 4 5 6 7 8 9 10 11 12 13 14 15 16 17 18 19 20 21 22 23 24 25
000
FTUS42 KMLB 271700
TAFMCO
TAF
KMCO 271722Z 2718/2818 07004KT P6SM FEW020 SCT035 BKN300
     FM280200 06005KT P6SM BKN012 OVC030
     FM280600 00000KT 5SM BR OVC008
     FM280900 00000KT 2SM BR OVC004
      TEMPO 2809/2812 1/2SM FG OVC002=

USA.gov is the U.S. government's official web portal to all federal, state and local government web resources and services.